sensor_id;sensor_type;location;lat;lon;timestamp;P1;durP1;ratioP1;P2;durP2;ratioP2
18152;SDS011;9202;51.578;7.734;2022-08-19T00:00:17;14.50;;;13.13;;
18152;SDS011;9202;51.578;7.734;2022-08-19T00:02:21;15.90;;;14.60;;
18152;SDS011;9202;51.578;7.734;2022-08-19T00:06:43;18.60;;;17.40;;
18152;SDS011;9202;51.578;7.734;2022-08-19T00:08:48;15.30;;;14.10;;
18152;SDS011;9202;51.578;7.734;2022-08-19T00:10:53;16.33;;;15.03;;
18152;SDS011;9202;51.578;7.734;2022-08-19T00:12:56;18.17;;;16.80;;
18152;SDS011;9202;51.578;7.734;2022-08-19T00:15:00;13.63;;;12.43;;
18152;SDS011;9202;51.578;7.734;2022-08-19T00:17:04;14.33;;;13.10;;
18152;SDS011;9202;51.578;7.734;2022-08-19T00:19:08;15.10;;;13.73;;
18152;SDS011;9202;51.578;7.734;2022-08-19T00:21:12;14.10;;;12.80;;
18152;SDS011;9202;51.578;7.734;2022-08-19T00:23:16;14.63;;;13.43;;
18152;SDS011;9202;51.578;7.734;2022-08-19T00:25:20;14.30;;;13.10;;
18152;SDS011;9202;51.578;7.734;2022-08-19T00:27:38;13.70;;;12.57;;
18152;SDS011;9202;51.578;7.734;2022-08-19T00:29:42;12.90;;;11.90;;
18152;SDS011;9202;51.578;7.734;2022-08-19T00:31:47;13.77;;;12.67;;
18152;SDS011;9202;51.578;7.734;2022-08-19T00:33:52;13.93;;;12.83;;
18152;SDS011;9202;51.578;7.734;2022-08-19T00:35:55;13.33;;;12.23;;
18152;SDS011;9202;51.578;7.734;2022-08-19T00:37:59;14.47;;;13.17;;
18152;SDS011;9202;51.578;7.734;2022-08-19T00:40:04;14.27;;;13.27;;
18152;SDS011;9202;51.578;7.734;2022-08-19T00:42:09;17.03;;;15.77;;
18152;SDS011;9202;51.578;7.734;2022-08-19T00:44:17;13.37;;;12.37;;
18152;SDS011;9202;51.578;7.734;2022-08-19T00:46:24;14.10;;;12.93;;
18152;SDS011;9202;51.578;7.734;2022-08-19T00:48:43;13.57;;;12.37;;
18152;SDS011;9202;51.578;7.734;2022-08-19T00:50:47;13.63;;;12.47;;
18152;SDS011;9202;51.578;7.734;2022-08-19T00:52:53;14.43;;;13.23;;
18152;SDS011;9202;51.578;7.734;2022-08-19T00:54:57;14.07;;;12.90;;
18152;SDS011;9202;51.578;7.734;2022-08-19T00:57:03;13.53;;;12.43;;
18152;SDS011;9202;51.578;7.734;2022-08-19T00:59:09;14.67;;;13.37;;
18152;SDS011;9202;51.578;7.734;2022-08-19T01:01:13;13.63;;;12.60;;
18152;SDS011;9202;51.578;7.734;2022-08-19T01:03:18;13.07;;;12.07;;
18152;SDS011;9202;51.578;7.734;2022-08-19T01:05:24;13.90;;;12.70;;
18152;SDS011;9202;51.578;7.734;2022-08-19T01:07:30;13.77;;;12.43;;
18152;SDS011;9202;51.578;7.734;2022-08-19T01:09:47;14.93;;;13.47;;
18152;SDS011;9202;51.578;7.734;2022-08-19T01:11:51;13.17;;;12.07;;
18152;SDS011;9202;51.578;7.734;2022-08-19T01:13:55;14.80;;;13.50;;
18152;SDS011;9202;51.578;7.734;2022-08-19T01:16:00;13.30;;;12.20;;
18152;SDS011;9202;51.578;7.734;2022-08-19T01:18:07;14.13;;;12.83;;
18152;SDS011;9202;51.578;7.734;2022-08-19T01:20:13;13.70;;;12.60;;
18152;SDS011;9202;51.578;7.734;2022-08-19T01:24:31;15.37;;;14.20;;
18152;SDS011;9202;51.578;7.734;2022-08-19T01:26:49;20.03;;;18.60;;
18152;SDS011;9202;51.578;7.734;2022-08-19T01:28:54;15.03;;;13.73;;
18152;SDS011;9202;51.578;7.734;2022-08-19T01:31:00;14.47;;;13.37;;
18152;SDS011;9202;51.578;7.734;2022-08-19T01:33:07;14.93;;;13.63;;
18152;SDS011;9202;51.578;7.734;2022-08-19T01:35:11;27.67;;;25.97;;
18152;SDS011;9202;51.578;7.734;2022-08-19T01:37:18;16.07;;;14.80;;
18152;SDS011;9202;51.578;7.734;2022-08-19T01:39:24;15.37;;;14.07;;
18152;SDS011;9202;51.578;7.734;2022-08-19T01:41:40;16.93;;;15.67;;
18152;SDS011;9202;51.578;7.734;2022-08-19T01:43:45;19.43;;;18.20;;
18152;SDS011;9202;51.578;7.734;2022-08-19T01:45:51;15.33;;;14.10;;
18152;SDS011;9202;51.578;7.734;2022-08-19T01:47:54;17.07;;;15.87;;
18152;SDS011;9202;51.578;7.734;2022-08-19T01:50:00;15.50;;;14.33;;
18152;SDS011;9202;51.578;7.734;2022-08-19T01:52:06;16.43;;;15.23;;
18152;SDS011;9202;51.578;7.734;2022-08-19T01:54:09;15.40;;;14.20;;
18152;SDS011;9202;51.578;7.734;2022-08-19T01:56:14;15.70;;;14.50;;
18152;SDS011;9202;51.578;7.734;2022-08-19T01:58:19;15.40;;;14.10;;
18152;SDS011;9202;51.578;7.734;2022-08-19T02:00:27;14.83;;;13.33;;
18152;SDS011;9202;51.578;7.734;2022-08-19T02:02:48;15.50;;;14.20;;
18152;SDS011;9202;51.578;7.734;2022-08-19T02:04:53;15.83;;;14.57;;
18152;SDS011;9202;51.578;7.734;2022-08-19T02:07:06;16.37;;;15.13;;
18152;SDS011;9202;51.578;7.734;2022-08-19T02:09:10;16.87;;;15.63;;
18152;SDS011;9202;51.578;7.734;2022-08-19T02:11:18;15.93;;;14.53;;
18152;SDS011;9202;51.578;7.734;2022-08-19T02:13:24;15.07;;;13.77;;
18152;SDS011;9202;51.578;7.734;2022-08-19T02:15:28;14.77;;;13.47;;
18152;SDS011;9202;51.578;7.734;2022-08-19T02:17:32;15.10;;;13.90;;
18152;SDS011;9202;51.578;7.734;2022-08-19T02:19:36;14.37;;;13.07;;
18152;SDS011;9202;51.578;7.734;2022-08-19T02:21:52;14.43;;;13.07;;
18152;SDS011;9202;51.578;7.734;2022-08-19T02:23:55;14.27;;;13.07;;
18152;SDS011;9202;51.578;7.734;2022-08-19T02:26:00;18.93;;;17.50;;
18152;SDS011;9202;51.578;7.734;2022-08-19T02:28:03;16.80;;;15.43;;
18152;SDS011;9202;51.578;7.734;2022-08-19T02:30:09;21.20;;;19.57;;
18152;SDS011;9202;51.578;7.734;2022-08-19T02:32:16;12.50;;;11.40;;
18152;SDS011;9202;51.578;7.734;2022-08-19T02:34:21;10.63;;;9.53;;
18152;SDS011;9202;51.578;7.734;2022-08-19T02:36:26;11.60;;;10.50;;
18152;SDS011;9202;51.578;7.734;2022-08-19T02:38:31;10.60;;;9.60;;
18152;SDS011;9202;51.578;7.734;2022-08-19T02:40:49;10.13;;;9.00;;
18152;SDS011;9202;51.578;7.734;2022-08-19T02:42:54;11.63;;;10.63;;
18152;SDS011;9202;51.578;7.734;2022-08-19T02:44:59;11.63;;;10.57;;
18152;SDS011;9202;51.578;7.734;2022-08-19T02:47:03;10.23;;;9.23;;
18152;SDS011;9202;51.578;7.734;2022-08-19T02:49:07;12.53;;;11.23;;
18152;SDS011;9202;51.578;7.734;2022-08-19T02:51:15;14.83;;;13.23;;
18152;SDS011;9202;51.578;7.734;2022-08-19T02:53:20;11.93;;;10.60;;
18152;SDS011;9202;51.578;7.734;2022-08-19T02:55:24;11.57;;;10.37;;
18152;SDS011;9202;51.578;7.734;2022-08-19T02:57:27;14.17;;;12.83;;
18152;SDS011;9202;51.578;7.734;2022-08-19T02:59:33;12.70;;;11.40;;
18152;SDS011;9202;51.578;7.734;2022-08-19T03:01:51;14.07;;;12.77;;
18152;SDS011;9202;51.578;7.734;2022-08-19T03:03:55;14.00;;;12.57;;
18152;SDS011;9202;51.578;7.734;2022-08-19T03:06:08;13.67;;;12.20;;
18152;SDS011;9202;51.578;7.734;2022-08-19T03:08:14;13.07;;;11.03;;
18152;SDS011;9202;51.578;7.734;2022-08-19T03:10:18;12.90;;;11.80;;
18152;SDS011;9202;51.578;7.734;2022-08-19T03:12:22;12.47;;;10.17;;
18152;SDS011;9202;51.578;7.734;2022-08-19T03:14:25;11.17;;;10.17;;
18152;SDS011;9202;51.578;7.734;2022-08-19T03:16:30;11.40;;;10.40;;
18152;SDS011;9202;51.578;7.734;2022-08-19T03:18:48;12.43;;;11.33;;
18152;SDS011;9202;51.578;7.734;2022-08-19T03:20:53;12.97;;;11.60;;
18152;SDS011;9202;51.578;7.734;2022-08-19T03:22:56;12.53;;;11.33;;
18152;SDS011;9202;51.578;7.734;2022-08-19T03:25:12;11.37;;;10.23;;
18152;SDS011;9202;51.578;7.734;2022-08-19T03:27:16;11.80;;;10.70;;
18152;SDS011;9202;51.578;7.734;2022-08-19T03:29:19;12.87;;;11.37;;
18152;SDS011;9202;51.578;7.734;2022-08-19T03:31:26;14.00;;;12.77;;
18152;SDS011;9202;51.578;7.734;2022-08-19T03:33:32;18.50;;;16.80;;
18152;SDS011;9202;51.578;7.734;2022-08-19T03:35:59;13.57;;;12.37;;
18152;SDS011;9202;51.578;7.734;2022-08-19T03:38:09;13.87;;;12.47;;
18152;SDS011;9202;51.578;7.734;2022-08-19T03:40:12;17.23;;;16.03;;
18152;SDS011;9202;51.578;7.734;2022-08-19T03:42:18;18.43;;;17.03;;
18152;SDS011;9202;51.578;7.734;2022-08-19T03:44:23;22.30;;;20.67;;
18152;SDS011;9202;51.578;7.734;2022-08-19T03:46:27;18.90;;;17.40;;
18152;SDS011;9202;51.578;7.734;2022-08-19T03:48:34;16.50;;;15.20;;
18152;SDS011;9202;51.578;7.734;2022-08-19T03:52:55;15.63;;;14.37;;
18152;SDS011;9202;51.578;7.734;2022-08-19T03:54:58;17.47;;;16.17;;
18152;SDS011;9202;51.578;7.734;2022-08-19T03:57:03;15.27;;;13.93;;
18152;SDS011;9202;51.578;7.734;2022-08-19T03:59:13;14.73;;;13.43;;
18152;SDS011;9202;51.578;7.734;2022-08-19T04:01:17;16.07;;;14.13;;
18152;SDS011;9202;51.578;7.734;2022-08-19T04:03:24;13.30;;;12.07;;
18152;SDS011;9202;51.578;7.734;2022-08-19T04:05:28;15.13;;;13.63;;
18152;SDS011;9202;51.578;7.734;2022-08-19T04:07:32;15.30;;;13.13;;
18152;SDS011;9202;51.578;7.734;2022-08-19T04:09:37;11.40;;;10.30;;
18152;SDS011;9202;51.578;7.734;2022-08-19T04:11:42;12.40;;;11.23;;
18152;SDS011;9202;51.578;7.734;2022-08-19T04:13:47;16.43;;;12.53;;
18152;SDS011;9202;51.578;7.734;2022-08-19T04:15:51;16.43;;;13.73;;
18152;SDS011;9202;51.578;7.734;2022-08-19T04:17:55;13.53;;;12.07;;
18152;SDS011;9202;51.578;7.734;2022-08-19T04:19:59;15.17;;;13.77;;
18152;SDS011;9202;51.578;7.734;2022-08-19T04:22:04;14.73;;;13.33;;
18152;SDS011;9202;51.578;7.734;2022-08-19T04:24:11;15.13;;;13.07;;
18152;SDS011;9202;51.578;7.734;2022-08-19T04:26:14;13.20;;;11.90;;
18152;SDS011;9202;51.578;7.734;2022-08-19T04:28:20;18.00;;;15.83;;
18152;SDS011;9202;51.578;7.734;2022-08-19T04:30:24;17.60;;;13.93;;
18152;SDS011;9202;51.578;7.734;2022-08-19T04:32:27;16.50;;;14.43;;
18152;SDS011;9202;51.578;7.734;2022-08-19T04:34:33;16.67;;;14.73;;
18152;SDS011;9202;51.578;7.734;2022-08-19T04:36:37;14.57;;;13.10;;
18152;SDS011;9202;51.578;7.734;2022-08-19T04:38:54;16.43;;;12.80;;
18152;SDS011;9202;51.578;7.734;2022-08-19T04:40:59;17.00;;;15.20;;
18152;SDS011;9202;51.578;7.734;2022-08-19T04:43:22;15.03;;;13.50;;
18152;SDS011;9202;51.578;7.734;2022-08-19T04:45:26;16.30;;;14.70;;
18152;SDS011;9202;51.578;7.734;2022-08-19T04:47:32;19.63;;;15.17;;
18152;SDS011;9202;51.578;7.734;2022-08-19T04:49:37;17.77;;;15.13;;
18152;SDS011;9202;51.578;7.734;2022-08-19T04:51:54;19.00;;;14.60;;
18152;SDS011;9202;51.578;7.734;2022-08-19T04:53:58;17.13;;;14.73;;
18152;SDS011;9202;51.578;7.734;2022-08-19T04:56:04;22.80;;;15.43;;
18152;SDS011;9202;51.578;7.734;2022-08-19T04:58:10;19.07;;;14.57;;
18152;SDS011;9202;51.578;7.734;2022-08-19T05:00:14;16.30;;;14.60;;
18152;SDS011;9202;51.578;7.734;2022-08-19T05:02:17;17.43;;;14.37;;
18152;SDS011;9202;51.578;7.734;2022-08-19T05:04:21;16.77;;;14.13;;
18152;SDS011;9202;51.578;7.734;2022-08-19T05:06:25;14.70;;;13.17;;
18152;SDS011;9202;51.578;7.734;2022-08-19T05:08:28;17.07;;;15.13;;
18152;SDS011;9202;51.578;7.734;2022-08-19T05:10:35;16.47;;;14.63;;
18152;SDS011;9202;51.578;7.734;2022-08-19T05:12:39;18.67;;;15.83;;
18152;SDS011;9202;51.578;7.734;2022-08-19T05:14:55;16.33;;;14.17;;
18152;SDS011;9202;51.578;7.734;2022-08-19T05:17:00;19.60;;;14.77;;
18152;SDS011;9202;51.578;7.734;2022-08-19T05:19:06;19.43;;;17.30;;
18152;SDS011;9202;51.578;7.734;2022-08-19T05:21:28;18.90;;;16.83;;
18152;SDS011;9202;51.578;7.734;2022-08-19T05:23:50;18.00;;;16.17;;
18152;SDS011;9202;51.578;7.734;2022-08-19T05:25:54;22.17;;;18.83;;
18152;SDS011;9202;51.578;7.734;2022-08-19T05:27:57;24.63;;;17.03;;
18152;SDS011;9202;51.578;7.734;2022-08-19T05:30:01;25.03;;;22.53;;
18152;SDS011;9202;51.578;7.734;2022-08-19T05:32:06;25.30;;;18.97;;
18152;SDS011;9202;51.578;7.734;2022-08-19T05:34:10;24.10;;;21.57;;
18152;SDS011;9202;51.578;7.734;2022-08-19T05:36:16;20.93;;;18.83;;
18152;SDS011;9202;51.578;7.734;2022-08-19T05:38:21;20.63;;;16.30;;
18152;SDS011;9202;51.578;7.734;2022-08-19T05:40:25;18.03;;;16.13;;
18152;SDS011;9202;51.578;7.734;2022-08-19T05:42:30;17.80;;;16.03;;
18152;SDS011;9202;51.578;7.734;2022-08-19T05:44:34;17.77;;;15.10;;
18152;SDS011;9202;51.578;7.734;2022-08-19T05:46:39;23.17;;;16.07;;
18152;SDS011;9202;51.578;7.734;2022-08-19T05:48:45;20.23;;;14.53;;
18152;SDS011;9202;51.578;7.734;2022-08-19T05:50:49;20.13;;;16.73;;
18152;SDS011;9202;51.578;7.734;2022-08-19T05:52:52;21.40;;;17.33;;
18152;SDS011;9202;51.578;7.734;2022-08-19T05:54:56;21.87;;;16.13;;
18152;SDS011;9202;51.578;7.734;2022-08-19T05:57:00;21.67;;;16.47;;
18152;SDS011;9202;51.578;7.734;2022-08-19T05:59:04;25.53;;;17.20;;
18152;SDS011;9202;51.578;7.734;2022-08-19T06:01:11;20.80;;;15.03;;
18152;SDS011;9202;51.578;7.734;2022-08-19T06:03:17;22.40;;;15.10;;
18152;SDS011;9202;51.578;7.734;2022-08-19T06:05:20;22.90;;;16.27;;
18152;SDS011;9202;51.578;7.734;2022-08-19T06:07:24;16.17;;;14.23;;
18152;SDS011;9202;51.578;7.734;2022-08-19T06:09:28;19.67;;;14.70;;
18152;SDS011;9202;51.578;7.734;2022-08-19T06:11:33;21.23;;;15.60;;
18152;SDS011;9202;51.578;7.734;2022-08-19T06:13:38;18.73;;;15.23;;
18152;SDS011;9202;51.578;7.734;2022-08-19T06:15:41;24.37;;;15.90;;
18152;SDS011;9202;51.578;7.734;2022-08-19T06:20:04;25.53;;;17.83;;
18152;SDS011;9202;51.578;7.734;2022-08-19T06:22:16;28.23;;;18.70;;
18152;SDS011;9202;51.578;7.734;2022-08-19T06:24:25;28.97;;;18.67;;
18152;SDS011;9202;51.578;7.734;2022-08-19T06:26:34;26.33;;;19.27;;
18152;SDS011;9202;51.578;7.734;2022-08-19T06:28:50;28.93;;;24.27;;
18152;SDS011;9202;51.578;7.734;2022-08-19T06:30:55;30.77;;;21.27;;
18152;SDS011;9202;51.578;7.734;2022-08-19T06:32:58;31.27;;;22.00;;
18152;SDS011;9202;51.578;7.734;2022-08-19T06:35:02;29.30;;;21.93;;
18152;SDS011;9202;51.578;7.734;2022-08-19T06:37:07;37.83;;;24.40;;
18152;SDS011;9202;51.578;7.734;2022-08-19T06:39:11;29.87;;;22.10;;
18152;SDS011;9202;51.578;7.734;2022-08-19T06:41:17;35.43;;;20.53;;
18152;SDS011;9202;51.578;7.734;2022-08-19T06:43:20;31.20;;;23.23;;
18152;SDS011;9202;51.578;7.734;2022-08-19T06:45:26;29.90;;;23.93;;
18152;SDS011;9202;51.578;7.734;2022-08-19T06:47:31;29.07;;;23.10;;
18152;SDS011;9202;51.578;7.734;2022-08-19T06:49:35;27.50;;;21.17;;
18152;SDS011;9202;51.578;7.734;2022-08-19T06:51:40;30.57;;;20.87;;
18152;SDS011;9202;51.578;7.734;2022-08-19T06:53:58;27.13;;;20.93;;
18152;SDS011;9202;51.578;7.734;2022-08-19T06:56:02;34.47;;;21.10;;
18152;SDS011;9202;51.578;7.734;2022-08-19T06:58:06;29.47;;;21.90;;
18152;SDS011;9202;51.578;7.734;2022-08-19T07:00:11;29.00;;;20.77;;
18152;SDS011;9202;51.578;7.734;2022-08-19T07:02:16;29.53;;;24.33;;
18152;SDS011;9202;51.578;7.734;2022-08-19T07:04:21;33.13;;;21.87;;
18152;SDS011;9202;51.578;7.734;2022-08-19T07:06:27;31.23;;;19.50;;
18152;SDS011;9202;51.578;7.734;2022-08-19T07:08:42;25.17;;;20.43;;
18152;SDS011;9202;51.578;7.734;2022-08-19T07:10:48;33.70;;;22.20;;
18152;SDS011;9202;51.578;7.734;2022-08-19T07:12:56;31.23;;;20.33;;
18152;SDS011;9202;51.578;7.734;2022-08-19T07:15:00;31.00;;;20.13;;
18152;SDS011;9202;51.578;7.734;2022-08-19T07:17:10;33.47;;;20.80;;
18152;SDS011;9202;51.578;7.734;2022-08-19T07:19:13;32.60;;;21.13;;
18152;SDS011;9202;51.578;7.734;2022-08-19T07:21:20;30.90;;;18.83;;
18152;SDS011;9202;51.578;7.734;2022-08-19T07:23:27;35.47;;;20.00;;
18152;SDS011;9202;51.578;7.734;2022-08-19T07:25:44;32.83;;;20.83;;
18152;SDS011;9202;51.578;7.734;2022-08-19T07:27:50;31.47;;;19.37;;
18152;SDS011;9202;51.578;7.734;2022-08-19T07:29:55;31.73;;;20.10;;
18152;SDS011;9202;51.578;7.734;2022-08-19T07:32:01;35.27;;;22.10;;
18152;SDS011;9202;51.578;7.734;2022-08-19T07:34:06;33.93;;;20.50;;
18152;SDS011;9202;51.578;7.734;2022-08-19T07:36:11;31.43;;;21.83;;
18152;SDS011;9202;51.578;7.734;2022-08-19T07:38:17;34.13;;;21.03;;
18152;SDS011;9202;51.578;7.734;2022-08-19T07:40:23;33.33;;;22.60;;
18152;SDS011;9202;51.578;7.734;2022-08-19T07:42:27;38.17;;;21.43;;
18152;SDS011;9202;51.578;7.734;2022-08-19T07:44:31;29.67;;;19.53;;
18152;SDS011;9202;51.578;7.734;2022-08-19T07:46:48;32.60;;;21.10;;
18152;SDS011;9202;51.578;7.734;2022-08-19T07:48:54;30.43;;;20.70;;
18152;SDS011;9202;51.578;7.734;2022-08-19T07:50:59;29.60;;;23.83;;
18152;SDS011;9202;51.578;7.734;2022-08-19T07:53:05;27.07;;;19.70;;
18152;SDS011;9202;51.578;7.734;2022-08-19T07:55:09;31.47;;;22.10;;
18152;SDS011;9202;51.578;7.734;2022-08-19T07:57:15;34.63;;;22.50;;
18152;SDS011;9202;51.578;7.734;2022-08-19T07:59:21;39.50;;;26.07;;
18152;SDS011;9202;51.578;7.734;2022-08-19T08:01:26;35.10;;;27.67;;
18152;SDS011;9202;51.578;7.734;2022-08-19T08:03:30;33.67;;;24.87;;
18152;SDS011;9202;51.578;7.734;2022-08-19T08:05:52;30.87;;;24.33;;
18152;SDS011;9202;51.578;7.734;2022-08-19T08:08:13;24.90;;;19.97;;
18152;SDS011;9202;51.578;7.734;2022-08-19T08:10:34;23.93;;;21.33;;
18152;SDS011;9202;51.578;7.734;2022-08-19T08:12:38;28.97;;;20.90;;
18152;SDS011;9202;51.578;7.734;2022-08-19T08:14:59;24.77;;;21.53;;
18152;SDS011;9202;51.578;7.734;2022-08-19T08:17:06;22.43;;;19.17;;
18152;SDS011;9202;51.578;7.734;2022-08-19T08:19:12;23.03;;;20.67;;
18152;SDS011;9202;51.578;7.734;2022-08-19T08:21:18;22.97;;;20.43;;
18152;SDS011;9202;51.578;7.734;2022-08-19T08:23:22;24.00;;;21.30;;
18152;SDS011;9202;51.578;7.734;2022-08-19T08:25:27;21.37;;;19.13;;
18152;SDS011;9202;51.578;7.734;2022-08-19T08:27:35;21.83;;;19.37;;
18152;SDS011;9202;51.578;7.734;2022-08-19T08:29:41;20.70;;;15.60;;
18152;SDS011;9202;51.578;7.734;2022-08-19T08:31:46;26.00;;;16.70;;
18152;SDS011;9202;51.578;7.734;2022-08-19T08:33:52;19.97;;;15.93;;
18152;SDS011;9202;51.578;7.734;2022-08-19T08:35:56;21.97;;;16.77;;
18152;SDS011;9202;51.578;7.734;2022-08-19T08:37:59;19.53;;;17.47;;
18152;SDS011;9202;51.578;7.734;2022-08-19T08:40:06;18.53;;;16.57;;
18152;SDS011;9202;51.578;7.734;2022-08-19T08:42:15;22.03;;;19.93;;
18152;SDS011;9202;51.578;7.734;2022-08-19T08:44:37;19.57;;;15.07;;
18152;SDS011;9202;51.578;7.734;2022-08-19T08:46:44;16.07;;;14.60;;
18152;SDS011;9202;51.578;7.734;2022-08-19T08:49:04;16.10;;;14.60;;
18152;SDS011;9202;51.578;7.734;2022-08-19T08:51:15;15.47;;;14.03;;
18152;SDS011;9202;51.578;7.734;2022-08-19T08:53:22;15.77;;;14.30;;
18152;SDS011;9202;51.578;7.734;2022-08-19T08:55:28;14.57;;;13.27;;
18152;SDS011;9202;51.578;7.734;2022-08-19T08:57:37;16.67;;;15.00;;
18152;SDS011;9202;51.578;7.734;2022-08-19T08:59:57;15.33;;;13.87;;
18152;SDS011;9202;51.578;7.734;2022-08-19T09:02:07;17.50;;;16.00;;
18152;SDS011;9202;51.578;7.734;2022-08-19T09:04:11;19.67;;;18.03;;
18152;SDS011;9202;51.578;7.734;2022-08-19T09:06:18;15.13;;;12.60;;
18152;SDS011;9202;51.578;7.734;2022-08-19T09:08:39;12.07;;;10.70;;
18152;SDS011;9202;51.578;7.734;2022-08-19T09:10:46;14.93;;;13.40;;
18152;SDS011;9202;51.578;7.734;2022-08-19T09:12:57;12.57;;;11.30;;
18152;SDS011;9202;51.578;7.734;2022-08-19T09:15:07;13.93;;;12.13;;
18152;SDS011;9202;51.578;7.734;2022-08-19T09:17:13;13.63;;;11.57;;
18152;SDS011;9202;51.578;7.734;2022-08-19T09:19:16;12.83;;;11.73;;
18152;SDS011;9202;51.578;7.734;2022-08-19T09:21:22;16.63;;;12.87;;
18152;SDS011;9202;51.578;7.734;2022-08-19T09:23:28;14.83;;;13.43;;
18152;SDS011;9202;51.578;7.734;2022-08-19T09:25:34;12.83;;;11.63;;
18152;SDS011;9202;51.578;7.734;2022-08-19T09:27:39;16.13;;;12.60;;
18152;SDS011;9202;51.578;7.734;2022-08-19T09:29:46;15.20;;;12.63;;
18152;SDS011;9202;51.578;7.734;2022-08-19T09:31:55;15.07;;;13.67;;
18152;SDS011;9202;51.578;7.734;2022-08-19T09:34:10;12.93;;;11.77;;
18152;SDS011;9202;51.578;7.734;2022-08-19T09:36:19;14.63;;;13.23;;
18152;SDS011;9202;51.578;7.734;2022-08-19T09:38:31;14.07;;;12.53;;
18152;SDS011;9202;51.578;7.734;2022-08-19T09:40:36;14.43;;;11.37;;
18152;SDS011;9202;51.578;7.734;2022-08-19T09:42:44;18.27;;;15.10;;
18152;SDS011;9202;51.578;7.734;2022-08-19T09:44:51;14.77;;;13.27;;
18152;SDS011;9202;51.578;7.734;2022-08-19T09:46:55;21.30;;;19.27;;
18152;SDS011;9202;51.578;7.734;2022-08-19T09:51:15;22.97;;;20.10;;
18152;SDS011;9202;51.578;7.734;2022-08-19T09:53:22;24.73;;;19.43;;
18152;SDS011;9202;51.578;7.734;2022-08-19T09:55:27;23.93;;;21.33;;
18152;SDS011;9202;51.578;7.734;2022-08-19T09:57:33;20.30;;;18.13;;
18152;SDS011;9202;51.578;7.734;2022-08-19T09:59:38;19.70;;;17.63;;
18152;SDS011;9202;51.578;7.734;2022-08-19T10:01:42;19.50;;;17.60;;
18152;SDS011;9202;51.578;7.734;2022-08-19T10:03:48;17.33;;;15.53;;
18152;SDS011;9202;51.578;7.734;2022-08-19T10:05:53;17.30;;;15.57;;
18152;SDS011;9202;51.578;7.734;2022-08-19T10:08:12;16.57;;;15.17;;
18152;SDS011;9202;51.578;7.734;2022-08-19T10:10:16;16.67;;;15.37;;
18152;SDS011;9202;51.578;7.734;2022-08-19T10:12:21;15.40;;;14.17;;
18152;SDS011;9202;51.578;7.734;2022-08-19T10:14:27;16.73;;;15.33;;
18152;SDS011;9202;51.578;7.734;2022-08-19T10:16:31;18.87;;;17.23;;
18152;SDS011;9202;51.578;7.734;2022-08-19T10:18:37;18.07;;;16.67;;
18152;SDS011;9202;51.578;7.734;2022-08-19T10:20:45;15.93;;;14.47;;
18152;SDS011;9202;51.578;7.734;2022-08-19T10:22:51;18.70;;;17.10;;
18152;SDS011;9202;51.578;7.734;2022-08-19T10:24:55;16.70;;;15.23;;
18152;SDS011;9202;51.578;7.734;2022-08-19T10:26:59;16.40;;;15.00;;
18152;SDS011;9202;51.578;7.734;2022-08-19T10:29:04;17.80;;;16.10;;
18152;SDS011;9202;51.578;7.734;2022-08-19T10:31:12;19.47;;;17.83;;
18152;SDS011;9202;51.578;7.734;2022-08-19T10:33:18;15.93;;;14.53;;
18152;SDS011;9202;51.578;7.734;2022-08-19T10:35:24;15.67;;;13.73;;
18152;SDS011;9202;51.578;7.734;2022-08-19T10:37:30;20.30;;;18.60;;
18152;SDS011;9202;51.578;7.734;2022-08-19T10:39:34;29.17;;;27.17;;
18152;SDS011;9202;51.578;7.734;2022-08-19T10:41:40;13.77;;;12.57;;
18152;SDS011;9202;51.578;7.734;2022-08-19T10:43:45;11.47;;;10.23;;
18152;SDS011;9202;51.578;7.734;2022-08-19T10:45:52;9.97;;;9.07;;
18152;SDS011;9202;51.578;7.734;2022-08-19T10:47:58;11.03;;;10.03;;
18152;SDS011;9202;51.578;7.734;2022-08-19T10:50:04;10.60;;;9.70;;
18152;SDS011;9202;51.578;7.734;2022-08-19T10:52:28;10.23;;;9.33;;
18152;SDS011;9202;51.578;7.734;2022-08-19T10:54:40;9.97;;;9.13;;
18152;SDS011;9202;51.578;7.734;2022-08-19T10:57:04;10.63;;;9.57;;
18152;SDS011;9202;51.578;7.734;2022-08-19T10:59:07;9.93;;;8.93;;
18152;SDS011;9202;51.578;7.734;2022-08-19T11:01:11;12.60;;;11.60;;
18152;SDS011;9202;51.578;7.734;2022-08-19T11:03:15;13.27;;;12.37;;
18152;SDS011;9202;51.578;7.734;2022-08-19T11:05:19;13.73;;;12.57;;
18152;SDS011;9202;51.578;7.734;2022-08-19T11:07:25;13.07;;;11.97;;
18152;SDS011;9202;51.578;7.734;2022-08-19T11:09:29;13.77;;;12.70;;
18152;SDS011;9202;51.578;7.734;2022-08-19T11:11:35;13.83;;;12.63;;
18152;SDS011;9202;51.578;7.734;2022-08-19T11:13:41;15.37;;;13.97;;
18152;SDS011;9202;51.578;7.734;2022-08-19T11:15:45;13.83;;;12.53;;
18152;SDS011;9202;51.578;7.734;2022-08-19T11:17:49;13.73;;;12.63;;
18152;SDS011;9202;51.578;7.734;2022-08-19T11:19:56;14.53;;;13.33;;
18152;SDS011;9202;51.578;7.734;2022-08-19T11:22:00;14.10;;;12.83;;
18152;SDS011;9202;51.578;7.734;2022-08-19T11:26:22;15.13;;;14.00;;
18152;SDS011;9202;51.578;7.734;2022-08-19T11:28:26;15.57;;;14.40;;
18152;SDS011;9202;51.578;7.734;2022-08-19T11:30:30;15.07;;;13.87;;
18152;SDS011;9202;51.578;7.734;2022-08-19T11:32:35;16.47;;;15.17;;
18152;SDS011;9202;51.578;7.734;2022-08-19T11:34:38;17.00;;;15.70;;
18152;SDS011;9202;51.578;7.734;2022-08-19T11:36:43;15.93;;;14.83;;
18152;SDS011;9202;51.578;7.734;2022-08-19T11:38:48;13.47;;;12.47;;
18152;SDS011;9202;51.578;7.734;2022-08-19T11:40:56;13.17;;;12.17;;
18152;SDS011;9202;51.578;7.734;2022-08-19T11:43:01;16.50;;;15.43;;
18152;SDS011;9202;51.578;7.734;2022-08-19T11:45:05;13.13;;;12.13;;
18152;SDS011;9202;51.578;7.734;2022-08-19T11:47:10;15.47;;;14.37;;
18152;SDS011;9202;51.578;7.734;2022-08-19T11:49:14;12.30;;;11.50;;
18152;SDS011;9202;51.578;7.734;2022-08-19T11:51:21;21.07;;;19.87;;
18152;SDS011;9202;51.578;7.734;2022-08-19T11:53:26;24.40;;;23.10;;
18152;SDS011;9202;51.578;7.734;2022-08-19T11:55:31;14.97;;;14.07;;
18152;SDS011;9202;51.578;7.734;2022-08-19T11:57:35;14.23;;;12.73;;
18152;SDS011;9202;51.578;7.734;2022-08-19T11:59:38;15.07;;;14.07;;
18152;SDS011;9202;51.578;7.734;2022-08-19T12:01:42;14.03;;;12.80;;
18152;SDS011;9202;51.578;7.734;2022-08-19T12:03:47;14.20;;;12.90;;
18152;SDS011;9202;51.578;7.734;2022-08-19T12:05:53;14.70;;;13.20;;
18152;SDS011;9202;51.578;7.734;2022-08-19T12:07:56;15.57;;;14.23;;
18152;SDS011;9202;51.578;7.734;2022-08-19T12:10:00;15.37;;;13.97;;
18152;SDS011;9202;51.578;7.734;2022-08-19T12:12:05;14.87;;;13.50;;
18152;SDS011;9202;51.578;7.734;2022-08-19T12:14:10;15.30;;;13.90;;
18152;SDS011;9202;51.578;7.734;2022-08-19T12:16:17;15.20;;;13.70;;
18152;SDS011;9202;51.578;7.734;2022-08-19T12:18:21;16.43;;;14.83;;
18152;SDS011;9202;51.578;7.734;2022-08-19T12:20:26;13.87;;;12.73;;
18152;SDS011;9202;51.578;7.734;2022-08-19T12:22:29;14.57;;;13.27;;
18152;SDS011;9202;51.578;7.734;2022-08-19T12:24:33;14.33;;;13.27;;
18152;SDS011;9202;51.578;7.734;2022-08-19T12:26:37;13.77;;;12.63;;
18152;SDS011;9202;51.578;7.734;2022-08-19T12:28:43;16.37;;;15.07;;
18152;SDS011;9202;51.578;7.734;2022-08-19T12:30:48;15.00;;;13.57;;
18152;SDS011;9202;51.578;7.734;2022-08-19T12:32:52;13.00;;;12.00;;
18152;SDS011;9202;51.578;7.734;2022-08-19T12:34:59;13.87;;;12.67;;
18152;SDS011;9202;51.578;7.734;2022-08-19T12:37:03;11.87;;;10.67;;
18152;SDS011;9202;51.578;7.734;2022-08-19T12:39:08;10.53;;;9.63;;
18152;SDS011;9202;51.578;7.734;2022-08-19T12:41:14;13.10;;;12.00;;
18152;SDS011;9202;51.578;7.734;2022-08-19T12:43:20;17.43;;;16.07;;
18152;SDS011;9202;51.578;7.734;2022-08-19T12:45:23;12.67;;;11.67;;